sensor_id;sensor_type;location;lat;lon;timestamp;P1;durP1;ratioP1;P2;durP2;ratioP2
31660;SDS011;18267;52.234;7.444;2024-02-23T00:02:16;0.10;;;0.10;;
31660;SDS011;18267;52.234;7.444;2024-02-23T00:04:41;0.08;;;0.08;;
31660;SDS011;18267;52.234;7.444;2024-02-23T00:07:07;1.77;;;0.10;;
31660;SDS011;18267;52.234;7.444;2024-02-23T00:09:33;1.17;;;0.10;;
31660;SDS011;18267;52.234;7.444;2024-02-23T00:11:59;0.00;;;0.00;;
31660;SDS011;18267;52.234;7.444;2024-02-23T00:14:24;0.43;;;0.13;;
31660;SDS011;18267;52.234;7.444;2024-02-23T00:16:50;0.20;;;0.20;;
31660;SDS011;18267;52.234;7.444;2024-02-23T00:19:15;0.10;;;0.00;;
31660;SDS011;18267;52.234;7.444;2024-02-23T00:21:43;1.15;;;0.15;;
31660;SDS011;18267;52.234;7.444;2024-02-23T00:24:12;0.38;;;0.20;;
31660;SDS011;18267;52.234;7.444;2024-02-23T00:26:38;0.28;;;0.10;;
31660;SDS011;18267;52.234;7.444;2024-02-23T00:29:03;0.03;;;0.00;;
31660;SDS011;18267;52.234;7.444;2024-02-23T00:31:29;0.10;;;0.10;;
31660;SDS011;18267;52.234;7.444;2024-02-23T00:33:54;0.00;;;0.00;;
31660;SDS011;18267;52.234;7.444;2024-02-23T00:36:20;0.73;;;0.10;;
31660;SDS011;18267;52.234;7.444;2024-02-23T00:38:45;0.10;;;0.10;;
31660;SDS011;18267;52.234;7.444;2024-02-23T00:41:11;0.00;;;0.00;;
31660;SDS011;18267;52.234;7.444;2024-02-23T00:43:37;0.08;;;0.03;;
31660;SDS011;18267;52.234;7.444;2024-02-23T00:46:03;0.08;;;0.08;;
31660;SDS011;18267;52.234;7.444;2024-02-23T00:48:29;0.10;;;0.10;;
31660;SDS011;18267;52.234;7.444;2024-02-23T00:50:55;0.10;;;0.05;;
31660;SDS011;18267;52.234;7.444;2024-02-23T00:53:20;0.00;;;0.00;;
31660;SDS011;18267;52.234;7.444;2024-02-23T00:55:46;0.10;;;0.00;;
31660;SDS011;18267;52.234;7.444;2024-02-23T00:58:12;0.00;;;0.00;;
31660;SDS011;18267;52.234;7.444;2024-02-23T01:00:38;0.57;;;0.20;;
31660;SDS011;18267;52.234;7.444;2024-02-23T01:03:03;1.33;;;0.20;;
31660;SDS011;18267;52.234;7.444;2024-02-23T01:05:30;0.20;;;0.20;;
31660;SDS011;18267;52.234;7.444;2024-02-23T01:07:55;0.10;;;0.10;;
31660;SDS011;18267;52.234;7.444;2024-02-23T01:10:21;0.20;;;0.20;;
31660;SDS011;18267;52.234;7.444;2024-02-23T01:12:46;0.28;;;0.20;;
31660;SDS011;18267;52.234;7.444;2024-02-23T01:15:12;1.48;;;0.30;;
31660;SDS011;18267;52.234;7.444;2024-02-23T01:17:38;0.30;;;0.20;;
31660;SDS011;18267;52.234;7.444;2024-02-23T01:20:03;0.50;;;0.10;;
31660;SDS011;18267;52.234;7.444;2024-02-23T01:22:30;0.13;;;0.13;;
31660;SDS011;18267;52.234;7.444;2024-02-23T01:24:55;1.27;;;0.43;;
31660;SDS011;18267;52.234;7.444;2024-02-23T01:27:21;1.65;;;0.30;;
31660;SDS011;18267;52.234;7.444;2024-02-23T01:29:47;3.00;;;0.32;;
31660;SDS011;18267;52.234;7.444;2024-02-23T01:32:12;0.43;;;0.20;;
31660;SDS011;18267;52.234;7.444;2024-02-23T01:34:38;0.65;;;0.57;;
31660;SDS011;18267;52.234;7.444;2024-02-23T01:37:03;1.08;;;0.40;;
31660;SDS011;18267;52.234;7.444;2024-02-23T01:39:29;0.40;;;0.40;;
31660;SDS011;18267;52.234;7.444;2024-02-23T01:41:55;7.13;;;0.47;;
31660;SDS011;18267;52.234;7.444;2024-02-23T01:44:20;0.57;;;0.28;;
31660;SDS011;18267;52.234;7.444;2024-02-23T01:46:46;2.30;;;0.45;;
31660;SDS011;18267;52.234;7.444;2024-02-23T01:49:12;0.50;;;0.40;;
31660;SDS011;18267;52.234;7.444;2024-02-23T01:51:39;1.95;;;0.30;;
31660;SDS011;18267;52.234;7.444;2024-02-23T01:54:04;0.85;;;0.20;;
31660;SDS011;18267;52.234;7.444;2024-02-23T01:56:31;1.08;;;0.55;;
31660;SDS011;18267;52.234;7.444;2024-02-23T01:58:58;2.45;;;0.52;;
31660;SDS011;18267;52.234;7.444;2024-02-23T02:01:24;0.50;;;0.40;;
31660;SDS011;18267;52.234;7.444;2024-02-23T02:03:50;1.85;;;0.57;;
31660;SDS011;18267;52.234;7.444;2024-02-23T02:06:15;0.43;;;0.43;;
31660;SDS011;18267;52.234;7.444;2024-02-23T02:08:41;1.23;;;0.68;;
31660;SDS011;18267;52.234;7.444;2024-02-23T02:11:07;1.77;;;1.00;;
31660;SDS011;18267;52.234;7.444;2024-02-23T02:13:32;0.85;;;0.85;;
31660;SDS011;18267;52.234;7.444;2024-02-23T02:15:59;0.90;;;0.75;;
31660;SDS011;18267;52.234;7.444;2024-02-23T02:18:26;1.50;;;0.77;;
31660;SDS011;18267;52.234;7.444;2024-02-23T02:20:53;0.98;;;0.63;;
31660;SDS011;18267;52.234;7.444;2024-02-23T02:23:21;2.53;;;0.90;;
31660;SDS011;18267;52.234;7.444;2024-02-23T02:25:54;1.00;;;0.90;;
31660;SDS011;18267;52.234;7.444;2024-02-23T02:28:23;3.25;;;1.00;;
31660;SDS011;18267;52.234;7.444;2024-02-23T02:30:50;6.15;;;1.50;;
31660;SDS011;18267;52.234;7.444;2024-02-23T02:33:19;2.55;;;1.23;;
31660;SDS011;18267;52.234;7.444;2024-02-23T02:35:45;8.35;;;1.70;;
31660;SDS011;18267;52.234;7.444;2024-02-23T02:38:11;2.63;;;2.00;;
31660;SDS011;18267;52.234;7.444;2024-02-23T02:40:37;5.00;;;1.67;;
31660;SDS011;18267;52.234;7.444;2024-02-23T02:43:03;3.83;;;1.27;;
31660;SDS011;18267;52.234;7.444;2024-02-23T02:45:29;6.22;;;1.55;;
31660;SDS011;18267;52.234;7.444;2024-02-23T02:47:54;5.55;;;2.17;;
31660;SDS011;18267;52.234;7.444;2024-02-23T02:50:21;5.43;;;1.65;;
31660;SDS011;18267;52.234;7.444;2024-02-23T02:52:47;3.30;;;1.50;;
31660;SDS011;18267;52.234;7.444;2024-02-23T02:55:12;4.05;;;1.63;;
31660;SDS011;18267;52.234;7.444;2024-02-23T02:57:38;4.13;;;1.50;;
31660;SDS011;18267;52.234;7.444;2024-02-23T03:00:32;2.63;;;1.63;;
31660;SDS011;18267;52.234;7.444;2024-02-23T03:02:57;1.48;;;1.05;;
31660;SDS011;18267;52.234;7.444;2024-02-23T03:05:23;5.70;;;1.40;;
31660;SDS011;18267;52.234;7.444;2024-02-23T03:07:48;2.90;;;1.30;;
31660;SDS011;18267;52.234;7.444;2024-02-23T03:10:14;3.30;;;1.20;;
31660;SDS011;18267;52.234;7.444;2024-02-23T03:12:39;3.38;;;1.27;;
31660;SDS011;18267;52.234;7.444;2024-02-23T03:15:05;3.45;;;1.08;;
31660;SDS011;18267;52.234;7.444;2024-02-23T03:17:31;3.85;;;1.30;;
31660;SDS011;18267;52.234;7.444;2024-02-23T03:19:57;5.57;;;1.30;;
31660;SDS011;18267;52.234;7.444;2024-02-23T03:22:23;4.70;;;1.10;;
31660;SDS011;18267;52.234;7.444;2024-02-23T03:24:49;3.67;;;1.25;;
31660;SDS011;18267;52.234;7.444;2024-02-23T03:27:14;3.47;;;1.17;;
31660;SDS011;18267;52.234;7.444;2024-02-23T03:29:40;7.60;;;1.17;;
31660;SDS011;18267;52.234;7.444;2024-02-23T03:32:06;2.72;;;1.25;;
31660;SDS011;18267;52.234;7.444;2024-02-23T03:34:32;5.10;;;0.93;;
31660;SDS011;18267;52.234;7.444;2024-02-23T03:36:57;3.03;;;0.75;;
31660;SDS011;18267;52.234;7.444;2024-02-23T03:39:23;4.63;;;0.60;;
31660;SDS011;18267;52.234;7.444;2024-02-23T03:41:49;4.82;;;0.60;;
31660;SDS011;18267;52.234;7.444;2024-02-23T03:44:14;1.17;;;0.70;;
31660;SDS011;18267;52.234;7.444;2024-02-23T03:46:40;2.60;;;0.55;;
31660;SDS011;18267;52.234;7.444;2024-02-23T03:49:06;3.55;;;0.70;;
31660;SDS011;18267;52.234;7.444;2024-02-23T03:51:31;3.90;;;0.63;;
31660;SDS011;18267;52.234;7.444;2024-02-23T03:54:01;7.07;;;0.70;;
31660;SDS011;18267;52.234;7.444;2024-02-23T03:56:28;2.25;;;0.70;;
31660;SDS011;18267;52.234;7.444;2024-02-23T03:58:53;2.20;;;0.82;;
31660;SDS011;18267;52.234;7.444;2024-02-23T04:01:19;4.88;;;1.13;;
31660;SDS011;18267;52.234;7.444;2024-02-23T04:03:44;1.98;;;0.50;;
31660;SDS011;18267;52.234;7.444;2024-02-23T04:06:10;4.57;;;1.10;;
31660;SDS011;18267;52.234;7.444;2024-02-23T04:08:35;4.78;;;1.38;;
31660;SDS011;18267;52.234;7.444;2024-02-23T04:11:01;2.03;;;0.50;;
31660;SDS011;18267;52.234;7.444;2024-02-23T04:13:28;4.03;;;0.85;;
31660;SDS011;18267;52.234;7.444;2024-02-23T04:15:53;2.15;;;0.60;;
31660;SDS011;18267;52.234;7.444;2024-02-23T04:18:19;2.67;;;0.60;;
31660;SDS011;18267;52.234;7.444;2024-02-23T04:20:44;3.33;;;0.68;;
31660;SDS011;18267;52.234;7.444;2024-02-23T04:23:10;1.85;;;0.63;;
31660;SDS011;18267;52.234;7.444;2024-02-23T04:25:35;1.65;;;0.40;;
31660;SDS011;18267;52.234;7.444;2024-02-23T04:28:01;6.80;;;0.52;;
31660;SDS011;18267;52.234;7.444;2024-02-23T04:30:26;11.75;;;0.93;;
31660;SDS011;18267;52.234;7.444;2024-02-23T04:32:52;3.88;;;0.68;;
31660;SDS011;18267;52.234;7.444;2024-02-23T04:35:17;3.97;;;0.70;;
31660;SDS011;18267;52.234;7.444;2024-02-23T04:37:43;2.20;;;0.50;;
31660;SDS011;18267;52.234;7.444;2024-02-23T04:40:10;7.20;;;0.65;;
31660;SDS011;18267;52.234;7.444;2024-02-23T04:42:36;4.47;;;0.80;;
31660;SDS011;18267;52.234;7.444;2024-02-23T04:45:01;2.08;;;0.60;;
31660;SDS011;18267;52.234;7.444;2024-02-23T04:47:27;3.42;;;1.00;;
31660;SDS011;18267;52.234;7.444;2024-02-23T04:49:53;1.70;;;0.35;;
31660;SDS011;18267;52.234;7.444;2024-02-23T04:52:18;2.67;;;0.60;;
31660;SDS011;18267;52.234;7.444;2024-02-23T04:54:44;2.13;;;0.38;;
31660;SDS011;18267;52.234;7.444;2024-02-23T04:57:09;4.38;;;0.73;;
31660;SDS011;18267;52.234;7.444;2024-02-23T04:59:35;3.33;;;0.80;;
31660;SDS011;18267;52.234;7.444;2024-02-23T05:02:00;4.65;;;0.63;;
31660;SDS011;18267;52.234;7.444;2024-02-23T05:04:26;2.55;;;0.93;;
31660;SDS011;18267;52.234;7.444;2024-02-23T05:06:51;3.67;;;0.80;;
31660;SDS011;18267;52.234;7.444;2024-02-23T05:09:17;2.55;;;0.63;;
31660;SDS011;18267;52.234;7.444;2024-02-23T05:11:43;6.03;;;0.40;;
31660;SDS011;18267;52.234;7.444;2024-02-23T05:14:10;5.93;;;1.15;;
31660;SDS011;18267;52.234;7.444;2024-02-23T05:16:36;3.80;;;1.02;;
31660;SDS011;18267;52.234;7.444;2024-02-23T05:19:02;5.40;;;0.70;;
31660;SDS011;18267;52.234;7.444;2024-02-23T05:21:27;8.70;;;1.05;;
31660;SDS011;18267;52.234;7.444;2024-02-23T05:23:53;3.08;;;0.57;;
31660;SDS011;18267;52.234;7.444;2024-02-23T05:26:18;0.85;;;0.40;;
31660;SDS011;18267;52.234;7.444;2024-02-23T05:28:45;5.68;;;0.70;;
31660;SDS011;18267;52.234;7.444;2024-02-23T05:31:10;3.17;;;0.85;;
31660;SDS011;18267;52.234;7.444;2024-02-23T05:33:36;2.03;;;0.73;;
31660;SDS011;18267;52.234;7.444;2024-02-23T05:36:03;3.45;;;0.70;;
31660;SDS011;18267;52.234;7.444;2024-02-23T05:38:29;6.20;;;1.02;;
31660;SDS011;18267;52.234;7.444;2024-02-23T05:40:55;1.85;;;0.80;;
31660;SDS011;18267;52.234;7.444;2024-02-23T05:43:21;8.70;;;0.98;;
31660;SDS011;18267;52.234;7.444;2024-02-23T05:45:46;2.67;;;0.60;;
31660;SDS011;18267;52.234;7.444;2024-02-23T05:48:12;2.88;;;0.52;;
31660;SDS011;18267;52.234;7.444;2024-02-23T05:50:37;2.15;;;0.73;;
31660;SDS011;18267;52.234;7.444;2024-02-23T05:53:03;1.17;;;0.40;;
31660;SDS011;18267;52.234;7.444;2024-02-23T05:55:29;7.82;;;0.90;;
31660;SDS011;18267;52.234;7.444;2024-02-23T05:57:55;1.15;;;0.60;;
31660;SDS011;18267;52.234;7.444;2024-02-23T06:00:21;7.15;;;0.75;;
31660;SDS011;18267;52.234;7.444;2024-02-23T06:02:47;2.15;;;0.55;;
31660;SDS011;18267;52.234;7.444;2024-02-23T06:05:12;6.25;;;0.70;;
31660;SDS011;18267;52.234;7.444;2024-02-23T06:07:38;4.97;;;0.60;;
31660;SDS011;18267;52.234;7.444;2024-02-23T06:10:04;6.60;;;0.88;;
31660;SDS011;18267;52.234;7.444;2024-02-23T06:12:30;3.70;;;0.55;;
31660;SDS011;18267;52.234;7.444;2024-02-23T06:14:55;9.70;;;1.05;;
31660;SDS011;18267;52.234;7.444;2024-02-23T06:17:23;3.60;;;0.35;;
31660;SDS011;18267;52.234;7.444;2024-02-23T06:19:48;2.90;;;1.13;;
31660;SDS011;18267;52.234;7.444;2024-02-23T06:22:15;0.50;;;0.20;;
31660;SDS011;18267;52.234;7.444;2024-02-23T06:24:45;3.03;;;0.60;;
31660;SDS011;18267;52.234;7.444;2024-02-23T06:27:14;2.70;;;0.50;;
31660;SDS011;18267;52.234;7.444;2024-02-23T06:29:39;3.97;;;0.82;;
31660;SDS011;18267;52.234;7.444;2024-02-23T06:32:05;3.33;;;0.43;;
31660;SDS011;18267;52.234;7.444;2024-02-23T06:34:31;6.30;;;0.55;;
31660;SDS011;18267;52.234;7.444;2024-02-23T06:36:57;1.92;;;0.50;;
31660;SDS011;18267;52.234;7.444;2024-02-23T06:39:22;2.95;;;1.05;;
31660;SDS011;18267;52.234;7.444;2024-02-23T06:41:48;4.07;;;0.50;;
31660;SDS011;18267;52.234;7.444;2024-02-23T06:44:13;1.83;;;0.57;;
31660;SDS011;18267;52.234;7.444;2024-02-23T06:46:39;7.30;;;0.50;;
31660;SDS011;18267;52.234;7.444;2024-02-23T06:49:05;12.00;;;0.50;;
31660;SDS011;18267;52.234;7.444;2024-02-23T06:51:31;3.65;;;0.50;;
31660;SDS011;18267;52.234;7.444;2024-02-23T06:53:57;2.38;;;0.55;;
31660;SDS011;18267;52.234;7.444;2024-02-23T06:56:22;1.27;;;0.50;;
31660;SDS011;18267;52.234;7.444;2024-02-23T06:58:48;4.40;;;0.70;;
31660;SDS011;18267;52.234;7.444;2024-02-23T07:01:14;2.95;;;0.57;;
31660;SDS011;18267;52.234;7.444;2024-02-23T07:03:40;4.53;;;0.30;;
31660;SDS011;18267;52.234;7.444;2024-02-23T07:06:07;9.95;;;0.75;;
31660;SDS011;18267;52.234;7.444;2024-02-23T07:08:36;4.13;;;0.35;;
31660;SDS011;18267;52.234;7.444;2024-02-23T07:11:01;3.53;;;0.32;;
31660;SDS011;18267;52.234;7.444;2024-02-23T07:13:27;1.58;;;0.57;;
31660;SDS011;18267;52.234;7.444;2024-02-23T07:15:53;3.97;;;0.60;;
31660;SDS011;18267;52.234;7.444;2024-02-23T07:18:20;4.40;;;0.88;;
31660;SDS011;18267;52.234;7.444;2024-02-23T07:20:46;5.07;;;0.50;;
31660;SDS011;18267;52.234;7.444;2024-02-23T07:23:12;1.75;;;0.20;;
31660;SDS011;18267;52.234;7.444;2024-02-23T07:25:37;2.92;;;0.47;;
31660;SDS011;18267;52.234;7.444;2024-02-23T07:28:03;6.35;;;0.40;;
31660;SDS011;18267;52.234;7.444;2024-02-23T07:30:29;8.10;;;0.63;;
31660;SDS011;18267;52.234;7.444;2024-02-23T07:32:54;0.68;;;0.30;;
31660;SDS011;18267;52.234;7.444;2024-02-23T07:35:20;2.50;;;0.80;;
31660;SDS011;18267;52.234;7.444;2024-02-23T07:37:45;3.78;;;0.82;;
31660;SDS011;18267;52.234;7.444;2024-02-23T07:40:11;7.28;;;0.60;;
31660;SDS011;18267;52.234;7.444;2024-02-23T07:42:37;4.82;;;0.52;;
31660;SDS011;18267;52.234;7.444;2024-02-23T07:45:03;5.70;;;1.15;;
31660;SDS011;18267;52.234;7.444;2024-02-23T07:47:33;3.35;;;0.60;;
31660;SDS011;18267;52.234;7.444;2024-02-23T07:49:58;6.75;;;0.60;;
31660;SDS011;18267;52.234;7.444;2024-02-23T07:52:24;2.58;;;0.30;;
31660;SDS011;18267;52.234;7.444;2024-02-23T07:54:51;3.22;;;0.90;;
31660;SDS011;18267;52.234;7.444;2024-02-23T07:57:20;3.88;;;0.43;;
31660;SDS011;18267;52.234;7.444;2024-02-23T07:59:46;4.25;;;0.63;;
31660;SDS011;18267;52.234;7.444;2024-02-23T08:02:12;1.75;;;0.30;;
31660;SDS011;18267;52.234;7.444;2024-02-23T08:04:37;4.45;;;0.47;;
31660;SDS011;18267;52.234;7.444;2024-02-23T08:07:03;4.07;;;0.43;;
31660;SDS011;18267;52.234;7.444;2024-02-23T08:09:29;0.52;;;0.20;;
31660;SDS011;18267;52.234;7.444;2024-02-23T08:11:54;2.30;;;0.20;;
31660;SDS011;18267;52.234;7.444;2024-02-23T08:14:20;9.88;;;0.73;;
31660;SDS011;18267;52.234;7.444;2024-02-23T08:16:45;5.00;;;0.60;;
31660;SDS011;18267;52.234;7.444;2024-02-23T08:19:11;2.15;;;0.38;;
31660;SDS011;18267;52.234;7.444;2024-02-23T08:21:37;6.85;;;0.68;;
31660;SDS011;18267;52.234;7.444;2024-02-23T08:24:02;1.33;;;0.20;;
31660;SDS011;18267;52.234;7.444;2024-02-23T08:26:28;2.42;;;0.43;;
31660;SDS011;18267;52.234;7.444;2024-02-23T08:28:54;4.85;;;0.60;;
31660;SDS011;18267;52.234;7.444;2024-02-23T08:31:19;2.97;;;0.35;;
31660;SDS011;18267;52.234;7.444;2024-02-23T08:33:45;7.75;;;0.70;;
31660;SDS011;18267;52.234;7.444;2024-02-23T08:36:11;4.03;;;0.60;;
31660;SDS011;18267;52.234;7.444;2024-02-23T08:38:37;3.30;;;0.70;;
31660;SDS011;18267;52.234;7.444;2024-02-23T08:41:03;10.70;;;0.70;;
31660;SDS011;18267;52.234;7.444;2024-02-23T08:43:28;6.22;;;0.50;;
31660;SDS011;18267;52.234;7.444;2024-02-23T08:45:54;3.58;;;0.50;;
31660;SDS011;18267;52.234;7.444;2024-02-23T08:48:21;1.85;;;0.40;;
31660;SDS011;18267;52.234;7.444;2024-02-23T08:50:46;3.72;;;0.50;;
31660;SDS011;18267;52.234;7.444;2024-02-23T08:53:12;5.10;;;0.40;;
31660;SDS011;18267;52.234;7.444;2024-02-23T08:55:37;4.47;;;0.43;;
31660;SDS011;18267;52.234;7.444;2024-02-23T08:58:03;4.85;;;0.63;;
31660;SDS011;18267;52.234;7.444;2024-02-23T09:00:30;2.58;;;0.70;;
31660;SDS011;18267;52.234;7.444;2024-02-23T09:02:56;1.52;;;0.40;;
31660;SDS011;18267;52.234;7.444;2024-02-23T09:05:22;4.97;;;0.80;;
31660;SDS011;18267;52.234;7.444;2024-02-23T09:07:47;2.47;;;0.57;;
31660;SDS011;18267;52.234;7.444;2024-02-23T09:10:13;2.38;;;0.30;;
31660;SDS011;18267;52.234;7.444;2024-02-23T09:12:38;3.50;;;0.80;;
31660;SDS011;18267;52.234;7.444;2024-02-23T09:15:04;0.77;;;0.25;;
31660;SDS011;18267;52.234;7.444;2024-02-23T09:17:31;3.33;;;0.35;;
31660;SDS011;18267;52.234;7.444;2024-02-23T09:19:56;2.42;;;0.52;;
31660;SDS011;18267;52.234;7.444;2024-02-23T09:22:22;1.92;;;0.45;;
31660;SDS011;18267;52.234;7.444;2024-02-23T09:24:47;1.60;;;0.40;;
31660;SDS011;18267;52.234;7.444;2024-02-23T09:27:13;1.00;;;0.10;;
31660;SDS011;18267;52.234;7.444;2024-02-23T09:29:40;2.80;;;0.40;;
31660;SDS011;18267;52.234;7.444;2024-02-23T09:32:06;6.95;;;0.45;;
31660;SDS011;18267;52.234;7.444;2024-02-23T09:34:32;0.80;;;0.40;;
31660;SDS011;18267;52.234;7.444;2024-02-23T09:36:57;3.33;;;0.60;;
31660;SDS011;18267;52.234;7.444;2024-02-23T09:39:23;5.50;;;0.75;;
31660;SDS011;18267;52.234;7.444;2024-02-23T09:41:51;2.97;;;0.40;;
31660;SDS011;18267;52.234;7.444;2024-02-23T09:44:19;2.25;;;0.55;;
31660;SDS011;18267;52.234;7.444;2024-02-23T09:46:47;0.82;;;0.30;;
31660;SDS011;18267;52.234;7.444;2024-02-23T09:49:13;6.18;;;0.50;;
31660;SDS011;18267;52.234;7.444;2024-02-23T09:51:41;5.47;;;0.57;;
31660;SDS011;18267;52.234;7.444;2024-02-23T09:54:07;3.63;;;0.55;;
31660;SDS011;18267;52.234;7.444;2024-02-23T09:56:32;4.47;;;0.57;;
31660;SDS011;18267;52.234;7.444;2024-02-23T09:59:00;4.50;;;0.55;;
31660;SDS011;18267;52.234;7.444;2024-02-23T10:01:28;5.13;;;0.55;;
31660;SDS011;18267;52.234;7.444;2024-02-23T10:04:01;3.30;;;0.40;;
31660;SDS011;18267;52.234;7.444;2024-02-23T10:06:31;6.05;;;0.50;;
31660;SDS011;18267;52.234;7.444;2024-02-23T10:08:57;3.10;;;0.40;;
31660;SDS011;18267;52.234;7.444;2024-02-23T10:11:23;7.93;;;0.88;;
31660;SDS011;18267;52.234;7.444;2024-02-23T10:13:49;2.53;;;0.82;;
31660;SDS011;18267;52.234;7.444;2024-02-23T10:16:16;4.88;;;0.52;;
31660;SDS011;18267;52.234;7.444;2024-02-23T10:18:45;2.72;;;0.90;;
31660;SDS011;18267;52.234;7.444;2024-02-23T10:21:15;1.30;;;0.52;;
31660;SDS011;18267;52.234;7.444;2024-02-23T10:23:41;5.03;;;0.45;;
31660;SDS011;18267;52.234;7.444;2024-02-23T10:26:07;3.95;;;0.75;;
31660;SDS011;18267;52.234;7.444;2024-02-23T10:28:36;4.22;;;0.55;;
31660;SDS011;18267;52.234;7.444;2024-02-23T10:31:05;6.10;;;0.60;;
31660;SDS011;18267;52.234;7.444;2024-02-23T10:33:31;2.88;;;0.50;;
31660;SDS011;18267;52.234;7.444;2024-02-23T10:35:57;0.95;;;0.60;;
31660;SDS011;18267;52.234;7.444;2024-02-23T10:38:24;3.72;;;0.60;;
31660;SDS011;18267;52.234;7.444;2024-02-23T10:40:51;3.45;;;0.60;;
31660;SDS011;18267;52.234;7.444;2024-02-23T10:43:20;2.10;;;0.77;;
31660;SDS011;18267;52.234;7.444;2024-02-23T10:45:54;1.53;;;0.40;;
31660;SDS011;18267;52.234;7.444;2024-02-23T10:48:22;5.82;;;0.60;;
31660;SDS011;18267;52.234;7.444;2024-02-23T10:50:49;3.42;;;0.95;;
31660;SDS011;18267;52.234;7.444;2024-02-23T10:53:15;1.33;;;0.40;;
31660;SDS011;18267;52.234;7.444;2024-02-23T10:55:42;3.45;;;0.50;;
31660;SDS011;18267;52.234;7.444;2024-02-23T10:58:10;3.58;;;0.40;;
31660;SDS011;18267;52.234;7.444;2024-02-23T11:00:38;1.98;;;0.45;;
31660;SDS011;18267;52.234;7.444;2024-02-23T11:03:04;2.78;;;0.40;;
31660;SDS011;18267;52.234;7.444;2024-02-23T11:05:31;1.23;;;0.40;;
31660;SDS011;18267;52.234;7.444;2024-02-23T11:07:59;4.20;;;0.50;;
31660;SDS011;18267;52.234;7.444;2024-02-23T11:10:25;0.98;;;0.50;;
31660;SDS011;18267;52.234;7.444;2024-02-23T11:12:59;1.20;;;0.32;;
31660;SDS011;18267;52.234;7.444;2024-02-23T11:15:26;3.28;;;0.55;;
31660;SDS011;18267;52.234;7.444;2024-02-23T11:17:52;4.10;;;0.32;;
31660;SDS011;18267;52.234;7.444;2024-02-23T11:20:17;1.38;;;0.45;;
31660;SDS011;18267;52.234;7.444;2024-02-23T11:22:43;2.78;;;0.57;;
31660;SDS011;18267;52.234;7.444;2024-02-23T11:25:09;3.42;;;0.63;;
31660;SDS011;18267;52.234;7.444;2024-02-23T11:27:36;5.40;;;0.55;;
31660;SDS011;18267;52.234;7.444;2024-02-23T11:30:06;1.67;;;0.40;;
31660;SDS011;18267;52.234;7.444;2024-02-23T11:32:40;1.95;;;0.63;;
31660;SDS011;18267;52.234;7.444;2024-02-23T11:35:11;0.65;;;0.20;;
31660;SDS011;18267;52.234;7.444;2024-02-23T11:37:44;1.70;;;0.73;;
31660;SDS011;18267;52.234;7.444;2024-02-23T11:40:30;0.98;;;0.30;;
31660;SDS011;18267;52.234;7.444;2024-02-23T11:42:56;2.42;;;0.85;;
31660;SDS011;18267;52.234;7.444;2024-02-23T11:45:25;1.40;;;0.35;;
31660;SDS011;18267;52.234;7.444;2024-02-23T11:47:53;3.88;;;0.40;;
31660;SDS011;18267;52.234;7.444;2024-02-23T11:50:19;3.08;;;0.57;;
31660;SDS011;18267;52.234;7.444;2024-02-23T11:52:45;4.50;;;0.30;;
31660;SDS011;18267;52.234;7.444;2024-02-23T11:55:11;6.82;;;0.80;;
31660;SDS011;18267;52.234;7.444;2024-02-23T11:57:38;2.83;;;0.50;;
31660;SDS011;18267;52.234;7.444;2024-02-23T12:00:07;2.20;;;0.30;;
31660;SDS011;18267;52.234;7.444;2024-02-23T12:02:37;1.15;;;0.45;;
31660;SDS011;18267;52.234;7.444;2024-02-23T12:05:03;5.05;;;0.70;;
31660;SDS011;18267;52.234;7.444;2024-02-23T12:07:29;0.50;;;0.28;;
31660;SDS011;18267;52.234;7.444;2024-02-23T12:09:55;3.42;;;0.80;;
31660;SDS011;18267;52.234;7.444;2024-02-23T12:12:21;3.78;;;0.60;;
31660;SDS011;18267;52.234;7.444;2024-02-23T12:14:47;7.85;;;0.50;;
31660;SDS011;18267;52.234;7.444;2024-02-23T12:17:13;3.78;;;0.60;;
31660;SDS011;18267;52.234;7.444;2024-02-23T12:19:39;5.22;;;0.70;;
31660;SDS011;18267;52.234;7.444;2024-02-23T12:22:05;5.63;;;0.55;;
31660;SDS011;18267;52.234;7.444;2024-02-23T12:24:31;1.45;;;0.55;;
31660;SDS011;18267;52.234;7.444;2024-02-23T12:26:56;5.07;;;0.57;;
31660;SDS011;18267;52.234;7.444;2024-02-23T12:29:22;3.22;;;0.40;;
31660;SDS011;18267;52.234;7.444;2024-02-23T12:31:49;5.40;;;0.38;;
31660;SDS011;18267;52.234;7.444;2024-02-23T12:34:15;3.92;;;0.63;;
31660;SDS011;18267;52.234;7.444;2024-02-23T12:36:41;1.15;;;0.50;;
31660;SDS011;18267;52.234;7.444;2024-02-23T12:39:06;4.18;;;0.95;;
31660;SDS011;18267;52.234;7.444;2024-02-23T12:41:32;2.90;;;0.68;;
31660;SDS011;18267;52.234;7.444;2024-02-23T12:43:58;9.82;;;0.65;;
31660;SDS011;18267;52.234;7.444;2024-02-23T12:46:23;1.33;;;0.50;;
31660;SDS011;18267;52.234;7.444;2024-02-23T12:48:49;4.47;;;0.60;;
31660;SDS011;18267;52.234;7.444;2024-02-23T12:51:15;3.45;;;0.57;;
31660;SDS011;18267;52.234;7.444;2024-02-23T12:53:41;2.33;;;0.28;;
31660;SDS011;18267;52.234;7.444;2024-02-23T12:56:09;4.18;;;0.90;;
31660;SDS011;18267;52.234;7.444;2024-02-23T12:58:36;3.10;;;0.80;;
31660;SDS011;18267;52.234;7.444;2024-02-23T13:01:03;5.50;;;0.45;;
31660;SDS011;18267;52.234;7.444;2024-02-23T13:03:31;4.68;;;0.57;;
31660;SDS011;18267;52.234;7.444;2024-02-23T13:05:57;1.83;;;0.40;;
31660;SDS011;18267;52.234;7.444;2024-02-23T13:08:23;7.30;;;0.70;;
31660;SDS011;18267;52.234;7.444;2024-02-23T13:10:50;3.80;;;0.57;;
31660;SDS011;18267;52.234;7.444;2024-02-23T13:13:17;3.30;;;0.88;;
31660;SDS011;18267;52.234;7.444;2024-02-23T13:15:43;3.05;;;0.50;;
31660;SDS011;18267;52.234;7.444;2024-02-23T13:18:09;4.50;;;0.85;;
31660;SDS011;18267;52.234;7.444;2024-02-23T13:20:36;2.63;;;0.70;;
31660;SDS011;18267;52.234;7.444;2024-02-23T13:23:02;4.38;;;0.63;;
31660;SDS011;18267;52.234;7.444;2024-02-23T13:25:28;2.78;;;0.60;;
31660;SDS011;18267;52.234;7.444;2024-02-23T13:27:53;1.15;;;0.40;;
31660;SDS011;18267;52.234;7.444;2024-02-23T13:30:19;2.92;;;1.15;;
31660;SDS011;18267;52.234;7.444;2024-02-23T13:32:45;3.78;;;0.98;;
31660;SDS011;18267;52.234;7.444;2024-02-23T13:35:10;4.40;;;0.50;;
31660;SDS011;18267;52.234;7.444;2024-02-23T13:37:36;2.85;;;0.55;;
31660;SDS011;18267;52.234;7.444;2024-02-23T13:40:02;1.02;;;0.43;;
31660;SDS011;18267;52.234;7.444;2024-02-23T13:42:30;0.80;;;0.40;;
31660;SDS011;18267;52.234;7.444;2024-02-23T13:44:56;1.58;;;0.47;;
31660;SDS011;18267;52.234;7.444;2024-02-23T13:47:22;2.05;;;0.55;;
31660;SDS011;18267;52.234;7.444;2024-02-23T13:49:47;2.95;;;0.45;;
31660;SDS011;18267;52.234;7.444;2024-02-23T13:52:13;3.42;;;0.68;;
31660;SDS011;18267;52.234;7.444;2024-02-23T13:54:38;4.93;;;0.60;;
31660;SDS011;18267;52.234;7.444;2024-02-23T13:57:04;2.35;;;0.93;;
31660;SDS011;18267;52.234;7.444;2024-02-23T13:59:30;2.45;;;0.40;;
31660;SDS011;18267;52.234;7.444;2024-02-23T14:01:55;2.55;;;0.50;;
31660;SDS011;18267;52.234;7.444;2024-02-23T14:04:21;3.78;;;0.52;;
31660;SDS011;18267;52.234;7.444;2024-02-23T14:06:46;0.95;;;0.32;;
31660;SDS011;18267;52.234;7.444;2024-02-23T14:09:12;1.48;;;0.30;;
31660;SDS011;18267;52.234;7.444;2024-02-23T14:11:37;1.40;;;0.60;;
31660;SDS011;18267;52.234;7.444;2024-02-23T14:14:05;1.85;;;0.35;;
31660;SDS011;18267;52.234;7.444;2024-02-23T14:16:31;2.38;;;0.57;;
31660;SDS011;18267;52.234;7.444;2024-02-23T14:18:57;6.28;;;0.50;;
31660;SDS011;18267;52.234;7.444;2024-02-23T14:21:22;3.08;;;0.22;;
31660;SDS011;18267;52.234;7.444;2024-02-23T14:23:50;5.22;;;0.47;;
31660;SDS011;18267;52.234;7.444;2024-02-23T14:26:16;3.22;;;0.60;;
31660;SDS011;18267;52.234;7.444;2024-02-23T14:28:41;1.45;;;0.55;;
31660;SDS011;18267;52.234;7.444;2024-02-23T14:31:07;1.42;;;0.20;;
31660;SDS011;18267;52.234;7.444;2024-02-23T14:33:32;2.63;;;0.38;;
31660;SDS011;18267;52.234;7.444;2024-02-23T14:35:58;2.95;;;0.45;;
31660;SDS011;18267;52.234;7.444;2024-02-23T14:38:23;3.78;;;0.50;;
31660;SDS011;18267;52.234;7.444;2024-02-23T14:40:49;4.53;;;0.32;;
31660;SDS011;18267;52.234;7.444;2024-02-23T14:43:15;7.88;;;0.50;;